createdAt,value
2023-05-14T00:00:02.411Z,9.5955
2023-05-14T00:01:03.244Z,9.6008
2023-05-14T00:02:05.028Z,9.5771
2023-05-14T00:03:07.499Z,9.6164
2023-05-14T00:04:08.659Z,9.6367
2023-05-14T00:06:10.658Z,9.5782
2023-05-14T00:08:12.153Z,9.5185
2023-05-14T00:09:13.733Z,9.4988
2023-05-14T00:17:19.972Z,9.3567
2023-05-14T00:21:54.917Z,9.2131
2023-05-14T00:22:55.103Z,9.1557
2023-05-14T00:30:01.042Z,9.1307
2023-05-14T00:31:01.992Z,9.0612
2023-05-14T00:32:03.672Z,9.0826
2023-05-14T00:34:06.357Z,9.0432
2023-05-14T00:35:07.775Z,9.0749
2023-05-14T00:36:09.098Z,9.0380
2023-05-14T00:37:09.899Z,9.0083
2023-05-14T00:38:11.381Z,9.0655
2023-05-14T00:40:11.376Z,9.1575
2023-05-14T00:41:13.591Z,9.1796
2023-05-14T00:43:15.074Z,9.0848
2023-05-14T00:44:15.799Z,9.0447
2023-05-14T00:45:16.494Z,9.0282
2023-05-14T00:51:21.735Z,8.9934
2023-05-14T00:52:24.303Z,8.9150
2023-05-14T00:55:28.486Z,9.0553
2023-05-14T00:56:28.601Z,9.0211
2023-05-14T00:57:30.234Z,8.9783
2023-05-14T00:58:31.432Z,8.9689
2023-05-14T00:59:32.698Z,8.9839
2023-05-14T01:00:33.327Z,9.0285
2023-05-14T01:01:33.732Z,9.0454
2023-05-14T01:02:34.530Z,9.0439
2023-05-14T01:03:35.483Z,9.0295
2023-05-14T01:04:35.887Z,9.0362
2023-05-14T01:05:36.163Z,9.0271
2023-05-14T01:06:36.413Z,9.0574
2023-05-14T01:07:38.957Z,9.0640
2023-05-14T01:08:41.084Z,9.0524
2023-05-14T01:09:41.843Z,9.0586
2023-05-14T01:10:42.118Z,9.0814
2023-05-14T01:11:42.798Z,9.1108
2023-05-14T01:12:43.089Z,9.0917
2023-05-14T01:13:43.408Z,9.1072
2023-05-14T01:14:44.639Z,9.0848
2023-05-14T01:15:45.263Z,9.0499
2023-05-14T01:16:47.235Z,9.0641
2023-05-14T01:17:47.415Z,9.0716
2023-05-14T01:18:48.893Z,9.0738
2023-05-14T01:19:49.094Z,9.1382
2023-05-14T01:20:51.037Z,9.1507
2023-05-14T01:21:52.606Z,9.1552
2023-05-14T01:22:54.792Z,9.1362
2023-05-14T01:23:56.314Z,9.1325
2023-05-14T01:24:57.779Z,9.1314
2023-05-14T01:25:59.179Z,9.1182
2023-05-14T01:27:00.476Z,9.1061
2023-05-14T01:28:02.381Z,9.0915
2023-05-14T01:29:02.423Z,9.0713
2023-05-14T01:30:03.665Z,9.0638
2023-05-14T01:31:05.614Z,9.0460
2023-05-14T01:32:06.936Z,9.0242
2023-05-14T01:33:07.276Z,9.0209
2023-05-14T01:34:07.782Z,9.0485
2023-05-14T01:35:09.511Z,9.1081
2023-05-14T01:36:10.066Z,9.1049
2023-05-14T01:37:10.994Z,9.1094
2023-05-14T01:38:11.319Z,9.1000
2023-05-14T01:46:17.037Z,9.0144
2023-05-14T01:49:20.423Z,9.0320
2023-05-14T01:50:20.681Z,9.0382
2023-05-14T01:51:22.097Z,8.9961
2023-05-14T01:52:23.230Z,8.9828
2023-05-14T01:53:24.477Z,8.9898
2023-05-14T01:54:24.967Z,8.9920
2023-05-14T01:55:26.402Z,8.9910
2023-05-14T01:56:28.422Z,8.9721
2023-05-14T01:57:28.668Z,8.9562
2023-05-14T01:58:30.063Z,8.9585
2023-05-14T01:59:30.365Z,8.9631
2023-05-14T02:00:31.708Z,8.9589
2023-05-14T02:01:34.389Z,8.9147
2023-05-14T02:02:35.182Z,8.8909
2023-05-14T02:03:35.257Z,8.9069
2023-05-14T02:04:36.300Z,8.8944
2023-05-14T02:09:40.558Z,8.8714
2023-05-14T02:10:41.110Z,8.8619
2023-05-14T02:12:42.207Z,8.8629
2023-05-14T02:14:42.673Z,8.8853
2023-05-14T02:15:44.247Z,8.8748
2023-05-14T02:16:45.100Z,8.8657
2023-05-14T02:17:45.214Z,8.8568
2023-05-14T02:18:47.499Z,8.8546
2023-05-14T02:20:49.313Z,8.8266
2023-05-14T02:31:01.296Z,8.7883
2023-05-14T02:32:01.410Z,8.7519
2023-05-14T02:34:03.886Z,8.7557
2023-05-14T02:37:07.403Z,8.7310
2023-05-14T02:38:07.507Z,8.6949
2023-05-14T02:39:07.417Z,8.6404
2023-05-14T02:40:09.253Z,8.6650
2023-05-14T02:41:10.298Z,8.6588
2023-05-14T02:42:11.870Z,8.5986
2023-05-14T02:43:13.471Z,8.5973
2023-05-14T02:44:14.127Z,8.5591
2023-05-14T02:45:16.305Z,8.5305
2023-05-14T02:46:18.759Z,8.5248
2023-05-14T02:47:19.759Z,8.5008
2023-05-14T02:48:20.328Z,8.4482
2023-05-14T02:49:20.615Z,8.4168
2023-05-14T02:50:23.529Z,8.4153
2023-05-14T02:51:25.245Z,8.3938
2023-05-14T02:52:26.077Z,8.3917
2023-05-14T02:53:26.932Z,8.3850
2023-05-14T02:54:28.149Z,8.4037
2023-05-14T02:55:30.068Z,8.4312
2023-05-14T02:56:32.107Z,8.4215
2023-05-14T02:57:32.601Z,8.3983
2023-05-14T02:58:34.783Z,8.4127
2023-05-14T02:59:34.845Z,8.4174
2023-05-14T03:00:36.554Z,8.4268
2023-05-14T03:02:38.931Z,8.4327
2023-05-14T03:03:39.226Z,8.4228
2023-05-14T03:04:39.960Z,8.4358
2023-05-14T03:05:41.266Z,8.4458
2023-05-14T03:06:42.369Z,8.4347
2023-05-14T03:10:46.904Z,8.4519
2023-05-14T03:12:49.038Z,8.4539
2023-05-14T03:13:49.932Z,8.4578
2023-05-14T03:14:51.523Z,8.4753
2023-05-14T03:16:53.689Z,8.4698
2023-05-14T03:17:55.508Z,8.4542
2023-05-14T03:18:55.940Z,8.4370
2023-05-14T03:19:56.146Z,8.4236
2023-05-14T03:20:57.325Z,8.4080
2023-05-14T03:21:59.522Z,8.4271
2023-05-14T03:23:00.148Z,8.3800
2023-05-14T03:24:00.475Z,8.4079
2023-05-14T03:25:03.335Z,8.3763
2023-05-14T03:26:04.443Z,8.3767
2023-05-14T03:27:04.473Z,8.3287
2023-05-14T03:28:05.504Z,8.2735
2023-05-14T03:29:07.186Z,8.2404
2023-05-14T03:30:07.301Z,8.1735
2023-05-14T03:31:09.036Z,8.1626
2023-05-14T03:32:10.798Z,8.1041
2023-05-14T03:33:12.533Z,8.0253
2023-05-14T03:34:14.226Z,8.0199
2023-05-14T03:35:16.029Z,7.9930
2023-05-14T03:36:16.336Z,8.0163
2023-05-14T03:37:18.338Z,7.9852
2023-05-14T03:38:18.584Z,7.8882
2023-05-14T03:39:21.223Z,7.8685
2023-05-14T03:40:22.475Z,7.8384
2023-05-14T03:41:23.152Z,7.8550
2023-05-14T03:42:24.300Z,7.8536
2023-05-14T03:43:25.427Z,7.9314
2023-05-14T03:52:34.006Z,7.8724
2023-05-14T03:55:34.972Z,7.8754
2023-05-14T03:56:36.812Z,7.9038
2023-05-14T03:57:37.884Z,7.9463
2023-05-14T03:58:39.986Z,7.9447
2023-05-14T03:59:41.737Z,7.9779
2023-05-14T04:00:42.069Z,8.0104
2023-05-14T04:01:43.372Z,8.0254
2023-05-14T04:02:44.689Z,8.0482
2023-05-14T04:07:49.965Z,8.1233
2023-05-14T04:08:50.939Z,8.1504
2023-05-14T04:10:52.164Z,8.1856
2023-05-14T04:11:52.300Z,8.2209
2023-05-14T04:12:53.539Z,8.2659
2023-05-14T04:13:55.636Z,8.3180
2023-05-14T04:14:56.312Z,8.3767
2023-05-14T04:16:59.529Z,8.3696
2023-05-14T04:23:02.219Z,8.5973
2023-05-14T04:24:04.467Z,8.6558
2023-05-14T04:26:05.667Z,8.6963
2023-05-14T04:27:07.276Z,8.6936
2023-05-14T04:28:09.804Z,8.6992
2023-05-14T04:29:10.102Z,8.7380
2023-05-14T04:30:12.380Z,8.7641
2023-05-14T04:33:14.826Z,8.8891
2023-05-14T04:34:17.173Z,8.8949
2023-05-14T04:36:18.056Z,8.9513
2023-05-14T04:37:19.663Z,8.9416
2023-05-14T04:38:19.815Z,8.9627
2023-05-14T04:41:21.194Z,9.0306
2023-05-14T04:42:23.569Z,9.0332
2023-05-14T04:43:24.518Z,9.0577
2023-05-14T04:45:26.632Z,9.0851
2023-05-14T04:46:28.923Z,9.1079
2023-05-14T04:48:29.136Z,9.2023
2023-05-14T04:49:31.045Z,9.2071
2023-05-14T04:50:31.352Z,9.2321
2023-05-14T04:51:33.649Z,9.2850
2023-05-14T04:58:39.361Z,9.6733
2023-05-14T05:01:42.259Z,9.7941
2023-05-14T05:02:42.882Z,9.8352
2023-05-14T05:03:43.146Z,9.8858
2023-05-14T05:04:45.508Z,9.8667
2023-05-14T05:05:47.840Z,9.8768
2023-05-14T05:06:48.521Z,9.9575
2023-05-14T05:07:49.319Z,9.9023
2023-05-14T05:08:49.375Z,9.7423
2023-05-14T05:09:50.025Z,9.8011
2023-05-14T05:10:50.146Z,9.8649
2023-05-14T05:11:51.542Z,9.8590
2023-05-14T05:12:53.719Z,9.8621
2023-05-14T05:13:54.371Z,9.9327
2023-05-14T05:14:55.626Z,9.9787
2023-05-14T05:17:58.550Z,9.9364
2023-05-14T05:32:17.817Z,10.2461
2023-05-14T05:33:18.900Z,10.2733
2023-05-14T05:34:20.743Z,10.2443
2023-05-14T05:35:23.083Z,10.3791
2023-05-14T05:36:23.464Z,10.4271
2023-05-14T05:37:23.535Z,10.6923
2023-05-14T05:38:25.241Z,10.7348
2023-05-14T05:39:26.447Z,10.6254
2023-05-14T05:40:27.518Z,10.6009
2023-05-14T05:41:28.038Z,10.6127
2023-05-14T05:42:30.720Z,10.6342
2023-05-14T05:43:31.772Z,10.5613
2023-05-14T05:44:33.521Z,10.5233
2023-05-14T05:45:34.164Z,10.5212
2023-05-14T05:46:35.839Z,10.5466
2023-05-14T05:47:37.891Z,10.5514
2023-05-14T05:48:40.071Z,10.5733
2023-05-14T05:49:40.844Z,10.7617
2023-05-14T05:50:41.205Z,10.8608
2023-05-14T05:51:41.333Z,10.9765
2023-05-14T05:52:41.736Z,10.9550
2023-05-14T05:53:43.968Z,10.8124
2023-05-14T05:54:45.009Z,11.0768
2023-05-14T05:55:46.479Z,11.2537
2023-05-14T05:56:47.633Z,11.3178
2023-05-14T05:57:49.201Z,11.4964
2023-05-14T05:58:49.824Z,11.4262
2023-05-14T05:59:50.105Z,11.4379
2023-05-14T06:00:51.690Z,11.2582
2023-05-14T06:01:52.960Z,11.4174
2023-05-14T06:02:53.951Z,11.3799
2023-05-14T06:03:55.230Z,11.1796
2023-05-14T06:04:57.104Z,11.1601
2023-05-14T06:05:58.283Z,11.1736
2023-05-14T06:07:00.014Z,11.2829
2023-05-14T06:08:01.132Z,11.0413
2023-05-14T06:11:46.957Z,10.5705
2023-05-14T06:12:48.959Z,10.6455
2023-05-14T06:13:50.530Z,10.6070
2023-05-14T06:14:50.999Z,10.4438
2023-05-14T06:15:51.799Z,10.4757
2023-05-14T06:16:54.343Z,10.5557
2023-05-14T06:17:55.328Z,10.5983
2023-05-14T06:18:55.961Z,10.6188
2023-05-14T06:19:57.719Z,10.5307
2023-05-14T06:20:58.767Z,10.3318
2023-05-14T06:21:59.089Z,10.4231
2023-05-14T06:23:01.909Z,10.4118
2023-05-14T06:24:02.208Z,10.3625
2023-05-14T06:25:02.590Z,10.3574
2023-05-14T06:26:03.296Z,10.3940
2023-05-14T06:27:05.283Z,10.4532
2023-05-14T06:28:06.758Z,10.4649
2023-05-14T06:29:08.644Z,10.3503
2023-05-14T06:30:09.410Z,10.3584
2023-05-14T06:31:10.417Z,10.3752
2023-05-14T06:32:11.122Z,10.2431
2023-05-14T06:33:13.234Z,10.4348
2023-05-14T06:34:14.057Z,10.5657
2023-05-14T06:35:16.693Z,10.6843
2023-05-14T06:36:17.522Z,10.5988
2023-05-14T06:37:17.965Z,10.6542
2023-05-14T06:38:19.164Z,10.8369
2023-05-14T06:39:20.804Z,10.9388
2023-05-14T06:40:22.036Z,10.8079
2023-05-14T06:41:23.719Z,10.7467
2023-05-14T06:42:26.134Z,10.7853
2023-05-14T06:45:01.741Z,10.8483
2023-05-14T06:48:02.632Z,10.7100
2023-05-14T06:49:03.444Z,10.8178
2023-05-14T06:50:05.108Z,10.8416
2023-05-14T06:53:37.918Z,10.9824
2023-05-14T06:55:39.812Z,11.0783
2023-05-14T06:56:39.801Z,10.9226
2023-05-14T06:57:41.624Z,10.8610
2023-05-14T06:58:42.809Z,10.9264
2023-05-14T06:59:43.407Z,10.8386
2023-05-14T07:00:45.293Z,11.1154
2023-05-14T07:01:46.457Z,11.2571
2023-05-14T07:03:11.410Z,11.3991
2023-05-14T07:05:19.629Z,11.3895
2023-05-14T07:06:20.732Z,11.2455
2023-05-14T07:07:22.322Z,11.2434
2023-05-14T07:11:25.707Z,11.0636
2023-05-14T07:12:28.508Z,11.1098
2023-05-14T07:13:30.253Z,10.8348
2023-05-14T07:14:30.582Z,10.8320
2023-05-14T07:15:32.105Z,10.5307
2023-05-14T07:16:33.541Z,10.5978
2023-05-14T07:24:40.472Z,11.1087
2023-05-14T07:25:41.052Z,11.2167
2023-05-14T07:26:41.908Z,11.2178
2023-05-14T07:27:42.662Z,11.3212
2023-05-14T07:28:44.439Z,11.3855
2023-05-14T07:29:44.502Z,11.5908
2023-05-14T07:30:46.011Z,11.8044
2023-05-14T07:31:46.657Z,11.8412
2023-05-14T07:32:48.253Z,11.5457
2023-05-14T07:33:50.505Z,12.0106
2023-05-14T07:38:31.678Z,12.0397
2023-05-14T07:39:33.080Z,12.2101
2023-05-14T07:42:07.618Z,11.5958
2023-05-14T07:48:56.695Z,12.9472
2023-05-14T07:49:57.829Z,13.9185
2023-05-14T07:54:00.893Z,15.6026
2023-05-14T07:55:01.830Z,16.0150
2023-05-14T07:56:47.658Z,15.1167
2023-05-14T12:18:24.631Z,12.3586
2023-05-14T12:21:22.477Z,12.2182
2023-05-14T12:28:10.772Z,12.2065
2023-05-14T12:31:13.343Z,12.1077
2023-05-14T12:32:13.528Z,12.1690
2023-05-14T12:44:11.470Z,11.9976
2023-05-14T12:46:13.556Z,12.0046
2023-05-14T12:47:14.069Z,12.2847
2023-05-14T12:48:14.944Z,12.3416
2023-05-14T12:51:50.147Z,12.6632
2023-05-14T12:52:49.042Z,12.4680
2023-05-14T12:53:49.195Z,12.5711
2023-05-14T12:58:55.301Z,12.9292
2023-05-14T13:00:26.432Z,13.0501
2023-05-14T13:03:28.244Z,13.0594
2023-05-14T13:09:34.018Z,13.4117
2023-05-14T13:12:37.492Z,13.8421
2023-05-14T13:27:22.703Z,14.2099
2023-05-14T13:28:24.634Z,14.1709
2023-05-14T13:29:25.604Z,14.2932
2023-05-14T13:32:27.286Z,14.6853
2023-05-14T13:33:27.566Z,14.2955
2023-05-14T13:34:28.062Z,14.3777
2023-05-14T13:35:30.378Z,14.8828
2023-05-14T13:36:30.747Z,14.8991
2023-05-14T13:37:31.003Z,14.8264
2023-05-14T13:42:45.156Z,14.9068
2023-05-14T13:47:17.377Z,14.9271
2023-05-14T13:57:29.770Z,15.7080
2023-05-14T14:05:38.136Z,17.2318
2023-05-14T14:45:35.343Z,14.2623
2023-05-14T14:53:09.225Z,12.8975
2023-05-14T14:54:10.040Z,12.5005
2023-05-14T15:10:26.315Z,11.1005
2023-05-14T15:11:27.631Z,11.1401
2023-05-14T15:12:27.966Z,11.1316
2023-05-14T15:13:29.904Z,11.2283
2023-05-14T15:14:30.858Z,11.2686
2023-05-14T15:15:30.945Z,11.2404
2023-05-14T15:16:32.628Z,11.1673
2023-05-14T15:17:32.614Z,11.0762
2023-05-14T15:18:34.304Z,11.0713
2023-05-14T15:23:11.632Z,11.1840
2023-05-14T15:24:13.900Z,11.1844
2023-05-14T15:25:16.745Z,11.0853
2023-05-14T15:26:17.333Z,10.9665
2023-05-14T15:27:19.784Z,10.9436
2023-05-14T15:28:20.460Z,10.9574
2023-05-14T15:29:20.561Z,10.9959
2023-05-14T15:30:21.742Z,10.9421
2023-05-14T15:31:22.967Z,11.0322
2023-05-14T15:32:23.650Z,11.0166
2023-05-14T15:33:33.675Z,10.8185
2023-05-14T15:41:04.083Z,10.9635
2023-05-14T15:42:04.741Z,10.8150
2023-05-14T15:50:10.279Z,10.9673
2023-05-14T15:51:12.499Z,10.9550
2023-05-14T15:52:14.154Z,11.0364
2023-05-14T15:53:16.388Z,11.0986
2023-05-14T15:54:16.857Z,11.1097
2023-05-14T15:55:18.621Z,11.2091
2023-05-14T15:56:18.422Z,11.2667
2023-05-14T15:57:20.091Z,11.3283
2023-05-14T15:58:19.200Z,11.4640
2023-05-14T16:00:23.538Z,11.7672
2023-05-14T16:32:58.299Z,10.4416
2023-05-14T16:34:02.132Z,10.4168
2023-05-14T16:47:01.092Z,10.3561
2023-05-14T16:56:11.604Z,10.1435
2023-05-14T16:59:12.205Z,10.1204
2023-05-14T17:00:14.388Z,10.0776
2023-05-14T17:01:16.050Z,10.0367
2023-05-14T17:02:18.260Z,10.0181
2023-05-14T17:03:20.437Z,10.0379
2023-05-14T17:04:21.537Z,10.0739
2023-05-14T17:05:22.575Z,10.0934
2023-05-14T17:06:22.642Z,10.1174
2023-05-14T17:08:26.733Z,10.1509
2023-05-14T17:09:26.771Z,10.1859
2023-05-14T17:10:28.447Z,10.1953
2023-05-14T17:11:29.485Z,10.1830
2023-05-14T17:12:29.773Z,10.1849
2023-05-14T17:13:31.853Z,10.1916
2023-05-14T17:14:33.592Z,10.1695
2023-05-14T17:15:35.203Z,10.1615
2023-05-14T17:16:37.137Z,10.1671
2023-05-14T17:17:37.188Z,10.1632
2023-05-14T17:18:37.564Z,10.1053
2023-05-14T17:19:39.297Z,10.1171
2023-05-14T17:20:39.966Z,10.1237
2023-05-14T17:21:42.011Z,10.1010
2023-05-14T17:22:43.748Z,10.1303
2023-05-14T17:23:45.664Z,10.1529
2023-05-14T17:24:47.546Z,10.1658
2023-05-14T17:25:49.295Z,10.1448
2023-05-14T17:26:51.114Z,10.0996
2023-05-14T17:27:51.306Z,10.0893
2023-05-14T17:28:53.378Z,10.1212
2023-05-14T17:29:53.944Z,10.1070
2023-05-14T17:30:54.352Z,10.1550
2023-05-14T17:31:56.574Z,10.1818
2023-05-14T17:32:57.398Z,10.2138
2023-05-14T17:33:58.020Z,10.2158
2023-05-14T17:34:59.008Z,10.2297
2023-05-14T17:35:59.669Z,10.2658
2023-05-14T17:37:00.172Z,10.3022
2023-05-14T17:38:00.717Z,10.2969
2023-05-14T17:39:01.927Z,10.2901
2023-05-14T17:40:02.427Z,10.2756
2023-05-14T17:42:03.469Z,10.0593
2023-05-14T17:43:03.766Z,10.0014
2023-05-14T17:44:05.120Z,9.9359
2023-05-14T17:45:06.341Z,9.9328
2023-05-14T17:46:07.620Z,9.9836
2023-05-14T17:47:09.151Z,10.0223
2023-05-14T17:48:09.401Z,10.0561
2023-05-14T17:49:10.725Z,10.0663
2023-05-14T17:50:11.271Z,10.0898
2023-05-14T17:51:12.095Z,10.1188
2023-05-14T17:56:15.046Z,10.2716
2023-05-14T17:57:15.804Z,10.2622
2023-05-14T17:58:17.397Z,10.1916
2023-05-14T18:00:21.923Z,10.1595
2023-05-14T18:06:27.715Z,10.1578
2023-05-14T18:07:30.382Z,10.1186
2023-05-14T18:08:30.464Z,10.1027
2023-05-14T18:09:31.080Z,10.1094
2023-05-14T18:10:33.761Z,10.0646
2023-05-14T18:11:35.028Z,10.0985
2023-05-14T18:12:36.948Z,10.1164
2023-05-14T18:13:38.623Z,10.1730
2023-05-14T18:14:40.408Z,10.2080
2023-05-14T18:15:42.112Z,10.2570
2023-05-14T18:16:43.241Z,10.1341
2023-05-14T18:17:43.423Z,10.2151
2023-05-14T18:18:44.588Z,10.2421
2023-05-14T18:19:44.836Z,10.1399
2023-05-14T18:20:46.748Z,10.1713
2023-05-14T18:21:48.446Z,10.1023
2023-05-14T18:22:49.585Z,10.1307
2023-05-14T18:23:51.486Z,10.1057
2023-05-14T18:24:52.945Z,10.1067
2023-05-14T18:25:53.099Z,10.1182
2023-05-14T18:26:53.243Z,10.0512
2023-05-14T18:27:56.087Z,9.9683
2023-05-14T18:28:57.261Z,9.8641
2023-05-14T18:30:57.146Z,9.8489
2023-05-14T18:36:03.035Z,9.8496
2023-05-14T18:37:05.129Z,9.8397
2023-05-14T18:38:06.480Z,9.8747
2023-05-14T18:39:07.738Z,9.8787
2023-05-14T18:40:10.035Z,9.8680
2023-05-14T18:41:11.736Z,9.8728
2023-05-14T18:42:13.499Z,9.8137
2023-05-14T18:43:15.688Z,9.8097
2023-05-14T18:44:16.192Z,9.7904
2023-05-14T18:45:19.318Z,9.7560
2023-05-14T18:46:20.685Z,9.6886
2023-05-14T18:47:20.761Z,9.6741
2023-05-14T18:48:22.671Z,9.6283
2023-05-14T18:49:24.054Z,9.6046
2023-05-14T18:55:30.407Z,9.5847
2023-05-14T19:01:38.406Z,9.5336
2023-05-14T19:02:39.302Z,9.5368
2023-05-14T19:05:42.442Z,9.5055
2023-05-14T19:06:44.513Z,9.5210
2023-05-14T19:07:44.926Z,9.5078
2023-05-14T19:08:47.080Z,9.4990
2023-05-14T19:09:47.466Z,9.5030
2023-05-14T19:10:47.597Z,9.5233
2023-05-14T19:12:51.992Z,9.5910
2023-05-14T19:13:52.073Z,9.5985
2023-05-14T19:14:53.892Z,9.5968
2023-05-14T19:16:58.228Z,9.6027
2023-05-14T19:17:59.051Z,9.6177
2023-05-14T19:20:01.263Z,9.6418
2023-05-14T19:21:02.097Z,9.6534
2023-05-14T19:22:03.669Z,9.6840
2023-05-14T19:23:03.894Z,9.7062
2023-05-14T19:24:06.586Z,9.7117
2023-05-14T19:25:08.447Z,9.7169
2023-05-14T19:27:10.124Z,9.6982
2023-05-14T19:28:11.095Z,9.7398
2023-05-14T19:29:13.120Z,9.7436
2023-05-14T19:30:14.828Z,9.7526
2023-05-14T19:31:16.594Z,9.7667
2023-05-14T19:32:17.873Z,9.7708
2023-05-14T19:33:17.886Z,9.7437
2023-05-14T19:43:29.006Z,9.5245
2023-05-14T19:44:29.220Z,9.5656
2023-05-14T19:47:30.893Z,9.5743
2023-05-14T19:52:36.890Z,9.7054
2023-05-14T19:53:38.450Z,9.7788
2023-05-14T19:55:38.881Z,9.8062
2023-05-14T19:57:42.434Z,9.7874
2023-05-14T19:58:44.255Z,9.7771
2023-05-14T19:59:46.055Z,9.7534
2023-05-14T20:00:48.211Z,9.7592
2023-05-14T20:01:50.723Z,9.7640
2023-05-14T20:03:52.034Z,9.8163
2023-05-14T20:04:53.839Z,9.8199
2023-05-14T20:05:55.492Z,9.8284
2023-05-14T20:06:57.237Z,9.7367
2023-05-14T20:07:57.755Z,9.6864
2023-05-14T20:08:58.599Z,9.6922
2023-05-14T20:09:59.817Z,9.7306
2023-05-14T20:11:00.964Z,9.7633
2023-05-14T20:12:02.720Z,9.7905
2023-05-14T20:13:04.546Z,9.7932
2023-05-14T20:14:07.263Z,9.7609
2023-05-14T20:15:08.669Z,9.7197
2023-05-14T20:16:09.199Z,9.7040
2023-05-14T20:17:09.780Z,9.7019
2023-05-14T20:18:10.283Z,9.7000
2023-05-14T20:19:12.190Z,9.7089
2023-05-14T20:20:13.010Z,9.7291
2023-05-14T20:21:14.011Z,9.7345
2023-05-14T20:22:15.034Z,9.7210
2023-05-14T20:23:17.478Z,9.7051
2023-05-14T20:28:23.120Z,9.7229
2023-05-14T20:29:25.581Z,9.7574
2023-05-14T20:30:26.375Z,9.7816
2023-05-14T20:31:26.688Z,9.7724
2023-05-14T20:32:27.752Z,9.7712
2023-05-14T20:34:28.765Z,9.7584
2023-05-14T20:35:30.141Z,9.7470
2023-05-14T20:36:30.122Z,9.7252
2023-05-14T20:37:32.097Z,9.7144
2023-05-14T20:38:33.423Z,9.6988
2023-05-14T20:39:34.648Z,9.7116
2023-05-14T20:40:35.864Z,9.7015
2023-05-14T20:41:36.378Z,9.6999
2023-05-14T20:42:37.885Z,9.7069
2023-05-14T20:53:58.219Z,9.6768
2023-05-14T20:55:01.851Z,9.6844
2023-05-14T20:56:00.976Z,9.7160
2023-05-14T20:57:01.183Z,9.7287
2023-05-14T20:58:03.234Z,9.7050
2023-05-14T20:59:03.854Z,9.6613
2023-05-14T21:00:03.919Z,9.6335
2023-05-14T21:01:07.171Z,9.6331
2023-05-14T21:03:07.338Z,9.6450
2023-05-14T21:04:08.060Z,9.6553
2023-05-14T21:05:09.023Z,9.6532
2023-05-14T21:06:10.996Z,9.6542
2023-05-14T21:07:11.574Z,9.6678
2023-05-14T21:09:13.934Z,9.6794
2023-05-14T21:10:15.277Z,9.6712
2023-05-14T21:11:16.314Z,9.6653
2023-05-14T21:12:16.498Z,9.6790
2023-05-14T21:13:16.941Z,9.6925
2023-05-14T21:14:18.653Z,9.6948
2023-05-14T21:15:20.872Z,9.6735
2023-05-14T21:16:23.044Z,9.6806
2023-05-14T21:17:24.444Z,9.6790
2023-05-14T21:18:25.305Z,9.6500
2023-05-14T21:19:25.624Z,9.6370
2023-05-14T21:20:28.326Z,9.6322
2023-05-14T21:23:30.234Z,9.6246
2023-05-14T21:24:31.181Z,9.6323
2023-05-14T21:25:32.803Z,9.6382
2023-05-14T21:26:34.057Z,9.6317
2023-05-14T21:27:35.858Z,9.6508
2023-05-14T21:29:38.685Z,9.6363
2023-05-14T21:30:41.678Z,9.6096
2023-05-14T21:31:41.955Z,9.6070
2023-05-14T21:32:44.725Z,9.5691
2023-05-14T21:33:44.991Z,9.5723
2023-05-14T21:34:45.285Z,9.5706
2023-05-14T21:35:48.416Z,9.5605
2023-05-14T21:38:50.989Z,9.5153
2023-05-14T21:39:51.284Z,9.5141
2023-05-14T21:40:52.510Z,9.4918
2023-05-14T21:46:59.490Z,9.4441
2023-05-14T21:47:59.898Z,9.4491
2023-05-14T21:49:59.780Z,9.4817
2023-05-14T21:51:02.074Z,9.4560
2023-05-14T21:52:03.488Z,9.4136
2023-05-14T21:53:05.449Z,9.3658
2023-05-14T21:54:05.498Z,9.3047
2023-05-14T21:55:06.075Z,9.3100
2023-05-14T21:57:07.568Z,9.2759
2023-05-14T21:58:08.509Z,9.2958
2023-05-14T21:59:08.522Z,9.2826
2023-05-14T22:00:09.552Z,9.2538
2023-05-14T22:01:11.092Z,9.2494
2023-05-14T22:02:12.138Z,9.2531
2023-05-14T22:03:13.007Z,9.3942
2023-05-14T22:04:13.886Z,9.4978
2023-05-14T22:06:15.196Z,9.3578
2023-05-14T22:07:15.599Z,9.3212
2023-05-14T22:08:18.383Z,9.2863
2023-05-14T22:09:19.938Z,9.2777
2023-05-14T22:10:21.681Z,9.2652
2023-05-14T22:12:22.080Z,9.2599
2023-05-14T22:13:24.115Z,9.2417
2023-05-14T22:14:24.795Z,9.2405
2023-05-14T22:16:27.057Z,9.2100
2023-05-14T22:17:27.332Z,9.1958
2023-05-14T22:18:28.119Z,9.1683
2023-05-14T22:21:33.494Z,9.1883
2023-05-14T22:22:33.937Z,9.1706
2023-05-14T22:23:35.276Z,9.1601
2023-05-14T22:24:36.149Z,9.2440
2023-05-14T22:25:37.273Z,9.2274
2023-05-14T22:26:38.127Z,9.1949
2023-05-14T22:27:40.317Z,9.2065
2023-05-14T22:28:41.004Z,9.2424
2023-05-14T22:29:41.790Z,9.2138
2023-05-14T22:30:42.895Z,9.2246
2023-05-14T22:31:44.743Z,9.2133
2023-05-14T22:32:46.789Z,9.2587
2023-05-14T22:33:47.083Z,9.2450
2023-05-14T22:34:48.186Z,9.2381
2023-05-14T22:35:49.485Z,9.2196
2023-05-14T22:36:50.047Z,9.2175
2023-05-14T22:37:50.913Z,9.2385
2023-05-14T22:38:52.568Z,9.2565
2023-05-14T22:50:10.551Z,9.3411
2023-05-14T22:51:12.074Z,9.2997
2023-05-14T22:52:12.542Z,9.3133
2023-05-14T22:53:13.796Z,9.3515
2023-05-14T22:54:16.335Z,9.3899
2023-05-14T22:56:17.311Z,9.3629
2023-05-14T22:57:17.998Z,9.3966
2023-05-14T22:58:19.389Z,9.4647
2023-05-14T23:00:24.224Z,9.5329
2023-05-14T23:01:24.977Z,9.5768
2023-05-14T23:02:25.474Z,9.5519
2023-05-14T23:03:26.965Z,9.5816
2023-05-14T23:04:28.191Z,9.6545
2023-05-14T23:06:30.206Z,9.6013
2023-05-14T23:07:30.828Z,9.6174
2023-05-14T23:08:31.800Z,9.5892
2023-05-14T23:09:33.117Z,9.5543
2023-05-14T23:10:33.976Z,9.5229
2023-05-14T23:11:36.128Z,9.4977
2023-05-14T23:12:38.115Z,9.4835
2023-05-14T23:13:40.830Z,9.4635
2023-05-14T23:14:42.375Z,9.4599
2023-05-14T23:15:44.514Z,9.4776
2023-05-14T23:16:44.707Z,9.4808
2023-05-14T23:17:45.603Z,9.4781
2023-05-14T23:18:45.861Z,9.4822
2023-05-14T23:19:47.100Z,9.4739
2023-05-14T23:20:48.135Z,9.4971
2023-05-14T23:21:49.437Z,9.5390
2023-05-14T23:22:50.855Z,9.5429
2023-05-14T23:23:52.715Z,9.5412
2023-05-14T23:25:52.764Z,9.5598
2023-05-14T23:26:55.629Z,9.5505
2023-05-14T23:27:57.008Z,9.5281
2023-05-14T23:28:57.577Z,9.4936
2023-05-14T23:31:01.142Z,9.4944
2023-05-14T23:32:02.685Z,9.4990
2023-05-14T23:34:03.404Z,9.4998
2023-05-14T23:37:05.714Z,9.4921
2023-05-14T23:50:07.380Z,9.3596
2023-05-14T23:53:12.591Z,9.3545
2023-05-14T23:54:14.666Z,9.3425
2023-05-14T23:55:15.867Z,9.3352
2023-05-14T23:56:18.078Z,9.3341
2023-05-14T23:57:18.364Z,9.3223
2023-05-14T23:58:18.391Z,9.3205
2023-05-14T23:59:19.107Z,9.3277
